Погода Араблинскоена неделю

Республика Дагестан, Россия

27 мая-02 июня
  • 27мая
    Сегодня
    +15°
    +23°
    Практически безоблачно
    ВремяПогодаТемператураВлажностьДавлениеВетер, м/сВероятность осадков
    00:00Ясно и безоблачно+16°C89 %761 мм1.3 м/с1 %
    03:00Ясно и безоблачно+16°C92 %762 мм1.9 м/с2 %
    06:00Ясно и безоблачно+18°C80 %762 мм1.8 м/с2 %
    09:00Пасмурно, сплошная облачность+21°C64 %763 мм2.9 м/с2 %
    12:00Небольшая облачность+23°C62 %763 мм3.5 м/с12 %
    15:00Практически безоблачно+21°C65 %764 мм2.9 м/с10 %
    18:00Практически безоблачно+19°C67 %764 мм1.9 м/с6 %
    21:00Ясно и безоблачно+18°C84 %765 мм1.5 м/с2 %
  • 28мая
    Вторник
    +17°
    +24°
    Небольшая облачность
    ВремяПогодаТемператураВлажностьДавлениеВетер, м/сВероятность осадков
    00:00Небольшая облачность+17°C79 %764 мм1.1 м/с2 %
    03:00Ясно и безоблачно+16°C75 %764 мм1.4 м/с2 %
    06:00Ясно и безоблачно+19°C78 %764 мм0.9 м/с2 %
    09:00Небольшая облачность+22°C53 %764 мм2.2 м/с2 %
    12:00Облачно с прояснениями+24°C56 %763 мм2.9 м/с3 %
    15:00Небольшая облачность+22°C63 %763 мм2.5 м/с3 %
    18:00Небольшая облачность+20°C70 %762 мм1.6 м/с2 %
    21:00Ясно и безоблачно+19°C82 %762 мм1.1 м/с2 %
  • 29мая
    Среда
    +18°
    +24°
    Ясно и безоблачно
    ВремяПогодаТемператураВлажностьДавлениеВетер, м/сВероятность осадков
    00:00Небольшая облачность+18°C86 %761 мм0.9 м/с2 %
    03:00Облачно с прояснениями+17°C88 %761 мм1.0 м/с2 %
    06:00Ясно и безоблачно+20°C77 %760 мм1.0 м/с2 %
    09:00Ясно и безоблачно+23°C60 %759 мм3.0 м/с2 %
    12:00Практически безоблачно+24°C72 %758 мм3.4 м/с2 %
    15:00Ясно и безоблачно+24°C71 %757 мм2.8 м/с2 %
    18:00Практически безоблачно+21°C73 %757 мм1.8 м/с2 %
    21:00Ясно и безоблачно+19°C86 %758 мм1.9 м/с2 %
  • 30мая
    Четверг
    +18°
    +25°
    Практически безоблачно
    ВремяПогодаТемператураВлажностьДавлениеВетер, м/сВероятность осадков
    00:00Ясно и безоблачно+19°C87 %758 мм1.9 м/с2 %
    03:00Ясно и безоблачно+19°C91 %758 мм1.2 м/с2 %
    06:00Ясно и безоблачно+21°C87 %759 мм0.9 м/с2 %
    09:00Ясно и безоблачно+24°C74 %760 мм2.6 м/с2 %
    12:00Небольшая облачность+25°C67 %760 мм3.5 м/с2 %
    15:00Практически безоблачно+25°C66 %759 мм2.5 м/с2 %
    18:00Ясно и безоблачно+22°C71 %759 мм1.8 м/с2 %
    21:00Ясно и безоблачно+21°C83 %759 мм0.9 м/с2 %
Мы используем cookies
Соглашаюсь